createdAt,value
2022-12-18T00:01:27.788Z,101360.09
2022-12-18T00:03:58.765Z,101365.50
2022-12-18T00:06:27.318Z,101368.00
2022-12-18T00:08:55.314Z,101383.81
2022-12-18T00:11:26.519Z,101386.31
2022-12-18T00:13:57.574Z,101393.88
2022-12-18T00:16:28.571Z,101406.22
2022-12-18T00:18:57.838Z,101405.88
2022-12-18T00:21:27.550Z,101406.63
2022-12-18T00:24:02.190Z,101413.25
2022-12-18T00:26:33.287Z,101414.56
2022-12-18T00:29:14.724Z,101421.81
2022-12-18T00:31:42.755Z,101430.41
2022-12-18T00:34:13.753Z,101424.34
2022-12-18T00:36:41.821Z,101429.59
2022-12-18T00:39:11.398Z,101431.66
2022-12-18T00:41:56.087Z,101438.25
2022-12-18T00:44:24.755Z,101431.91
2022-12-18T00:46:53.668Z,101424.91
2022-12-18T00:49:21.198Z,101437.00
2022-12-18T00:51:48.733Z,101445.09
2022-12-18T00:54:16.071Z,101448.66
2022-12-18T00:56:49.027Z,101452.44
2022-12-18T00:59:21.226Z,101461.25
2022-12-18T01:01:48.174Z,101463.66
2022-12-18T01:04:17.890Z,101468.69
2022-12-18T01:06:44.849Z,101470.69
2022-12-18T01:09:14.043Z,101480.28
2022-12-18T01:11:40.688Z,101469.78
2022-12-18T01:14:09.954Z,101469.28
2022-12-18T01:16:36.721Z,101484.78
2022-12-18T01:19:03.304Z,101485.44
2022-12-18T01:21:29.808Z,101479.47
2022-12-18T01:23:57.593Z,101482.25
2022-12-18T01:26:30.495Z,101483.63
2022-12-18T01:28:57.996Z,101485.09
2022-12-18T01:31:28.305Z,101488.72
2022-12-18T01:33:58.127Z,101492.88
2022-12-18T01:36:31.122Z,101499.91
2022-12-18T01:38:59.942Z,101497.28
2022-12-18T01:41:52.192Z,101499.41
2022-12-18T01:44:59.928Z,101505.28
2022-12-18T01:47:49.113Z,101508.72
2022-12-18T01:50:19.943Z,101511.06
2022-12-18T01:52:53.846Z,101514.59
2022-12-18T01:55:25.911Z,101513.31
2022-12-18T01:57:58.906Z,101506.28
2022-12-18T02:00:27.816Z,101510.78
2022-12-18T02:02:55.296Z,101519.38
2022-12-18T02:05:50.423Z,101521.91
2022-12-18T02:08:27.249Z,101523.75
2022-12-18T02:11:07.965Z,101534.41
2022-12-18T02:13:41.947Z,101532.81
2022-12-18T02:16:25.615Z,101535.25
2022-12-18T02:18:58.937Z,101537.16
2022-12-18T02:21:32.250Z,101537.75
2022-12-18T02:24:08.128Z,101540.56
2022-12-18T02:26:46.568Z,101539.19
2022-12-18T02:29:25.223Z,101536.50
2022-12-18T02:32:00.309Z,101540.91
2022-12-18T02:34:33.198Z,101547.84
2022-12-18T02:37:03.115Z,101544.84
2022-12-18T02:39:34.381Z,101551.94
2022-12-18T02:42:08.773Z,101563.47
2022-12-18T02:44:50.322Z,101563.63
2022-12-18T02:47:22.093Z,101559.63
2022-12-18T02:50:10.611Z,101556.31
2022-12-18T02:52:47.010Z,101571.19
2022-12-18T02:55:31.990Z,101573.31
2022-12-18T02:58:09.554Z,101574.47
2022-12-18T03:00:49.706Z,101579.78
2022-12-18T03:03:31.212Z,101585.81
2022-12-18T03:06:05.405Z,101592.91
2022-12-18T03:08:38.850Z,101589.91
2022-12-18T03:11:12.704Z,101590.19
2022-12-18T03:13:49.523Z,101597.63
2022-12-18T03:16:26.624Z,101593.44
2022-12-18T03:19:00.021Z,101602.88
2022-12-18T03:21:48.684Z,101594.34
2022-12-18T03:24:17.014Z,101601.72
2022-12-18T03:26:50.292Z,101603.22
2022-12-18T03:29:25.303Z,101610.94
2022-12-18T03:32:01.617Z,101622.66
2022-12-18T03:34:34.733Z,101627.53
2022-12-18T03:37:04.998Z,101624.84
2022-12-18T03:39:37.436Z,101626.63
2022-12-18T03:42:20.322Z,101622.44
2022-12-18T03:45:01.462Z,101631.94
2022-12-18T03:47:43.411Z,101643.66
2022-12-18T03:50:22.691Z,101638.94
2022-12-18T03:53:01.423Z,101638.78
2022-12-18T03:55:30.552Z,101641.09
2022-12-18T03:57:58.845Z,101634.63
2022-12-18T04:00:25.419Z,101631.38
2022-12-18T04:02:54.936Z,101632.88
2022-12-18T04:05:25.295Z,101647.66
2022-12-18T04:07:58.166Z,101652.53
2022-12-18T04:10:24.737Z,101652.94
2022-12-18T04:12:51.255Z,101652.47
2022-12-18T04:15:22.828Z,101655.91
2022-12-18T04:17:50.669Z,101655.91
2022-12-18T04:20:18.081Z,101656.50
2022-12-18T04:22:44.621Z,101655.94
2022-12-18T04:25:13.650Z,101654.16
2022-12-18T04:27:42.669Z,101656.94
2022-12-18T04:30:09.790Z,101654.16
2022-12-18T04:32:36.369Z,101664.22
2022-12-18T04:35:07.581Z,101663.63
2022-12-18T04:37:34.100Z,101664.22
2022-12-18T04:40:02.970Z,101674.03
2022-12-18T04:42:31.831Z,101664.84
2022-12-18T04:44:58.298Z,101677.41
2022-12-18T04:47:24.818Z,101683.19
2022-12-18T04:49:51.295Z,101689.72
2022-12-18T04:52:20.210Z,101694.16
2022-12-18T04:54:49.187Z,101701.19
2022-12-18T04:57:15.727Z,101701.16
2022-12-18T04:59:42.230Z,101699.38
2022-12-18T05:02:08.835Z,101707.72
2022-12-18T05:04:35.405Z,101704.06
2022-12-18T05:07:04.141Z,101708.50
2022-12-18T05:09:32.874Z,101711.63
2022-12-18T05:12:01.688Z,101713.81
2022-12-18T05:14:30.145Z,101712.75
2022-12-18T05:17:01.096Z,101712.16
2022-12-18T05:19:28.072Z,101723.72
2022-12-18T05:21:54.607Z,101713.63
2022-12-18T05:24:21.096Z,101721.34
2022-12-18T05:26:47.654Z,101720.16
2022-12-18T05:29:17.220Z,101733.88
2022-12-18T05:31:43.662Z,101720.28
2022-12-18T05:34:13.443Z,101727.81
2022-12-18T05:36:42.804Z,101731.81
2022-12-18T05:39:14.128Z,101734.38
2022-12-18T05:41:43.483Z,101744.44
2022-12-18T05:44:12.981Z,101745.00
2022-12-18T05:46:44.384Z,101745.94
2022-12-18T05:49:10.901Z,101751.81
2022-12-18T05:51:37.499Z,101757.09
2022-12-18T05:54:06.303Z,101749.34
2022-12-18T05:56:33.125Z,101762.97
2022-12-18T05:59:02.151Z,101755.31
2022-12-18T06:01:32.038Z,101760.91
2022-12-18T06:03:59.120Z,101759.88
2022-12-18T06:06:29.868Z,101762.25
2022-12-18T06:08:57.927Z,101764.22
2022-12-18T06:11:26.990Z,101766.63
2022-12-18T06:14:00.252Z,101771.38
2022-12-18T06:16:31.205Z,101765.72
2022-12-18T06:19:01.142Z,101774.50
2022-12-18T06:21:29.694Z,101773.28
2022-12-18T06:23:56.574Z,101773.06
2022-12-18T06:26:28.033Z,101776.09
2022-12-18T06:28:56.146Z,101783.94
2022-12-18T06:31:25.120Z,101794.34
2022-12-18T06:33:51.723Z,101809.25
2022-12-18T06:36:18.376Z,101801.09
2022-12-18T06:38:47.416Z,101801.72
2022-12-18T06:41:17.361Z,101816.34
2022-12-18T06:43:46.542Z,101824.03
2022-12-18T06:46:13.706Z,101823.75
2022-12-18T06:48:42.871Z,101828.78
2022-12-18T06:51:11.620Z,101820.97
2022-12-18T06:53:38.477Z,101821.63
2022-12-18T06:56:10.226Z,101827.19
2022-12-18T06:58:38.211Z,101842.31
2022-12-18T07:01:09.951Z,101841.84
2022-12-18T07:03:39.763Z,101840.72
2022-12-18T07:06:09.400Z,101852.94
2022-12-18T07:08:35.978Z,101854.31
2022-12-18T07:11:06.685Z,101852.63
2022-12-18T07:13:33.219Z,101859.53
2022-12-18T07:16:24.815Z,101867.09
2022-12-18T07:18:52.787Z,101867.81
2022-12-18T07:21:23.098Z,101873.63
2022-12-18T07:23:49.767Z,101875.75
2022-12-18T07:26:19.182Z,101869.34
2022-12-18T07:28:45.992Z,101882.72
2022-12-18T07:31:18.911Z,101883.69
2022-12-18T07:33:46.675Z,101888.41
2022-12-18T07:36:14.312Z,101899.09
2022-12-18T07:38:43.078Z,101895.63
2022-12-18T07:41:12.545Z,101896.41
2022-12-18T07:43:39.618Z,101901.13
2022-12-18T07:46:07.233Z,101902.59
2022-12-18T07:48:33.926Z,101912.72
2022-12-18T07:51:05.290Z,101911.06
2022-12-18T07:53:32.655Z,101924.13
2022-12-18T07:58:56.126Z,101925.06
2022-12-18T08:01:25.803Z,101936.78
2022-12-18T08:03:54.888Z,101933.66
2022-12-18T08:06:23.290Z,101939.75
2022-12-18T08:08:57.830Z,101939.50
2022-12-18T08:11:26.700Z,101942.75
2022-12-18T08:13:54.144Z,101938.00
2022-12-18T08:16:21.892Z,101946.31
2022-12-18T08:18:49.438Z,101948.06
2022-12-18T08:21:27.328Z,101951.66
2022-12-18T08:23:58.075Z,101943.66
2022-12-18T08:26:31.643Z,101954.94
2022-12-18T08:29:01.324Z,101949.28
2022-12-18T08:31:32.067Z,101947.53
2022-12-18T08:33:58.851Z,101958.50
2022-12-18T08:36:27.795Z,101961.28
2022-12-18T08:38:57.566Z,101957.88
2022-12-18T08:41:24.758Z,101959.34
2022-12-18T08:44:09.894Z,101952.81
2022-12-18T08:46:44.219Z,101964.69
2022-12-18T08:49:12.269Z,101959.66
2022-12-18T08:51:39.449Z,101970.06
2022-12-18T08:54:08.674Z,101975.06
2022-12-18T08:56:35.380Z,101975.66
2022-12-18T08:59:07.325Z,101968.25
2022-12-18T09:01:34.572Z,101971.84
2022-12-18T09:04:07.623Z,101975.41
2022-12-18T09:06:34.954Z,101984.44
2022-12-18T09:09:04.953Z,101984.63
2022-12-18T09:11:34.943Z,101991.75
2022-12-18T09:14:05.271Z,101990.16
2022-12-18T09:16:33.411Z,101993.81
2022-12-18T09:19:01.205Z,101992.34
2022-12-18T09:21:37.215Z,101994.22
2022-12-18T09:24:05.127Z,101982.59
2022-12-18T09:26:38.581Z,101977.25
2022-12-18T09:29:08.691Z,101981.31
2022-12-18T09:31:35.332Z,101981.47
2022-12-18T09:34:04.160Z,101987.06
2022-12-18T09:36:30.991Z,101989.00
2022-12-18T09:38:57.711Z,101980.16
2022-12-18T09:41:48.900Z,101976.97
2022-12-18T09:44:21.232Z,101978.44
2022-12-18T09:47:12.924Z,101985.50
2022-12-18T09:52:34.411Z,101982.97
2022-12-18T09:55:24.866Z,101980.88
2022-12-18T09:58:00.137Z,101985.72
2022-12-18T10:00:29.282Z,101987.19
2022-12-18T10:03:10.030Z,101989.91
2022-12-18T10:06:01.866Z,101985.91
2022-12-18T10:08:40.788Z,101982.25
2022-12-18T10:11:19.432Z,101985.47
2022-12-18T10:13:54.665Z,101981.84
2022-12-18T10:16:45.002Z,101987.06
2022-12-18T10:19:20.301Z,101975.97
2022-12-18T10:22:13.381Z,101984.78
2022-12-18T10:24:46.450Z,101974.19
2022-12-18T10:27:22.544Z,101978.34
2022-12-18T10:29:51.583Z,101976.78
2022-12-18T10:32:29.558Z,101972.47
2022-12-18T10:35:00.801Z,101975.06
2022-12-18T10:37:31.031Z,101966.41
2022-12-18T10:40:21.900Z,101975.34
2022-12-18T10:43:09.194Z,101971.28
2022-12-18T10:45:36.087Z,101978.13
2022-12-18T10:48:07.364Z,101973.44
2022-12-18T10:51:09.214Z,101967.97
2022-12-18T10:53:30.721Z,101972.41
2022-12-18T10:55:59.936Z,101965.09
2022-12-18T10:58:35.912Z,101968.00
2022-12-18T11:01:07.543Z,101963.50
2022-12-18T11:03:57.707Z,101968.41
2022-12-18T11:06:28.962Z,101951.03
2022-12-18T11:09:12.212Z,101953.44
2022-12-18T11:11:42.224Z,101953.69
2022-12-18T11:14:25.037Z,101944.91
2022-12-18T11:19:45.644Z,101949.09
2022-12-18T11:22:27.821Z,101952.13
2022-12-18T11:25:30.807Z,101944.03
2022-12-18T11:27:52.367Z,101951.13
2022-12-18T11:30:30.430Z,101950.88
2022-12-18T11:33:02.304Z,101950.09
2022-12-18T11:35:36.930Z,101942.25
2022-12-18T11:38:25.158Z,101950.50
2022-12-18T11:40:54.802Z,101945.81
2022-12-18T11:43:32.643Z,101941.25
2022-12-18T11:46:12.421Z,101939.75
2022-12-18T11:49:07.445Z,101930.34
2022-12-18T11:51:50.155Z,101933.38
2022-12-18T11:54:17.640Z,101933.44
2022-12-18T11:57:05.252Z,101940.19
2022-12-18T11:59:37.022Z,101938.38
2022-12-18T12:02:45.954Z,101932.50
2022-12-18T12:05:15.891Z,101928.28
2022-12-18T12:07:48.422Z,101929.88
2022-12-18T12:10:27.145Z,101927.84
2022-12-18T12:13:14.813Z,101926.69
2022-12-18T12:16:05.551Z,101932.28
2022-12-18T12:18:43.992Z,101926.19
2022-12-18T12:21:22.998Z,101924.16
2022-12-18T12:23:52.431Z,101930.88
2022-12-18T12:26:42.158Z,101921.00
2022-12-18T12:29:30.627Z,101932.25
2022-12-18T12:32:12.595Z,101930.06
2022-12-18T12:34:45.224Z,101931.81
2022-12-18T12:37:37.540Z,101922.50
2022-12-18T12:40:41.024Z,101921.81
2022-12-18T12:43:19.212Z,101924.47
2022-12-18T12:46:08.365Z,101943.69
2022-12-18T12:48:50.249Z,101937.84
2022-12-18T12:51:19.643Z,101942.75
2022-12-18T12:53:49.931Z,101951.53
2022-12-18T12:56:19.848Z,101961.13
2022-12-18T12:59:25.910Z,101964.91
2022-12-18T13:01:55.750Z,101963.69
2022-12-18T13:04:31.092Z,101957.88
2022-12-18T13:07:00.670Z,101970.84
2022-12-18T13:09:35.005Z,101963.53
2022-12-18T13:12:30.606Z,101973.53
2022-12-18T13:15:23.472Z,101973.19
2022-12-18T13:17:50.175Z,101968.59
2022-12-18T13:20:17.404Z,101971.28
2022-12-18T13:22:48.227Z,101970.16
2022-12-18T13:25:36.547Z,101972.31
2022-12-18T13:28:09.715Z,101981.47
2022-12-18T13:30:36.243Z,101982.47
2022-12-18T13:33:15.532Z,101980.34
2022-12-18T13:35:49.030Z,101983.38
2022-12-18T13:38:24.826Z,101985.66
2022-12-18T13:40:51.338Z,101985.16
2022-12-18T13:43:21.143Z,101976.88
2022-12-18T13:46:00.201Z,101976.75
2022-12-18T13:48:28.659Z,101989.72
2022-12-18T13:51:08.047Z,101995.66
2022-12-18T13:53:40.081Z,101994.75
2022-12-18T13:56:11.913Z,101990.44
2022-12-18T13:58:38.852Z,101988.84
2022-12-18T14:01:06.190Z,101995.03
2022-12-18T14:03:33.164Z,101999.34
2022-12-18T14:06:13.619Z,102002.38
2022-12-18T14:08:45.053Z,102004.91
2022-12-18T14:11:23.321Z,102004.88
2022-12-18T14:13:53.216Z,102004.53
2022-12-18T14:16:23.126Z,101999.81
2022-12-18T14:19:05.545Z,102002.13
2022-12-18T14:21:38.464Z,102003.66
2022-12-18T14:24:19.740Z,102004.69
2022-12-18T14:26:48.411Z,102005.44
2022-12-18T14:29:25.671Z,102008.22
2022-12-18T14:32:18.891Z,102013.03
2022-12-18T14:34:56.564Z,102018.59
2022-12-18T14:37:30.612Z,102018.59
2022-12-18T14:40:10.513Z,102022.19
2022-12-18T14:42:40.267Z,102023.19
2022-12-18T14:45:43.696Z,102032.81
2022-12-18T14:48:22.997Z,102042.34
2022-12-18T14:51:04.687Z,102032.25
2022-12-18T14:53:34.557Z,102051.22
2022-12-18T14:56:02.174Z,102053.28
2022-12-18T14:58:33.517Z,102061.66
2022-12-18T15:01:02.665Z,102053.38
2022-12-18T15:03:29.575Z,102057.31
2022-12-18T15:05:58.961Z,102054.91
2022-12-18T15:08:35.437Z,102063.59
2022-12-18T15:11:02.127Z,102073.84
2022-12-18T15:13:29.946Z,102069.41
2022-12-18T15:16:03.990Z,102068.63
2022-12-18T15:18:42.580Z,102074.19
2022-12-18T15:21:14.799Z,102086.59
2022-12-18T15:23:47.481Z,102088.88
2022-12-18T15:26:17.119Z,102085.56
2022-12-18T15:28:52.122Z,102085.28
2022-12-18T15:31:18.661Z,102089.84
2022-12-18T15:33:53.981Z,102096.81
2022-12-18T15:36:27.037Z,102093.69
2022-12-18T15:39:00.943Z,102097.69
2022-12-18T15:41:35.782Z,102106.03
2022-12-18T15:44:03.020Z,102106.66
2022-12-18T15:46:33.005Z,102104.88
2022-12-18T15:49:03.559Z,102108.78
2022-12-18T15:51:37.701Z,102115.31
2022-12-18T15:54:07.400Z,102119.78
2022-12-18T15:56:54.961Z,102117.06
2022-12-18T15:59:21.759Z,102123.06
2022-12-18T16:01:52.207Z,102127.16
2022-12-18T16:04:24.657Z,102126.72
